sensor_id;sensor_type;location;lat;lon;timestamp;temperature;humidity
20858;DHT22;10589;53.636;10.012;2022-12-04T04:46:51;0.30;99.90
20858;DHT22;10589;53.636;10.012;2022-12-04T04:49:18;0.30;99.90
20858;DHT22;10589;53.636;10.012;2022-12-04T04:51:47;0.30;99.90
20858;DHT22;10589;53.636;10.012;2022-12-04T04:54:13;0.20;99.90
20858;DHT22;10589;53.636;10.012;2022-12-04T04:56:42;0.30;99.90
20858;DHT22;10589;53.636;10.012;2022-12-04T04:59:09;0.30;99.90
20858;DHT22;10589;53.636;10.012;2022-12-04T05:01:36;0.30;99.90
20858;DHT22;10589;53.636;10.012;2022-12-04T05:04:03;0.30;99.90
20858;DHT22;10589;53.636;10.012;2022-12-04T05:06:29;0.30;99.90
20858;DHT22;10589;53.636;10.012;2022-12-04T05:08:55;0.30;99.90
20858;DHT22;10589;53.636;10.012;2022-12-04T05:11:20;0.30;99.90
20858;DHT22;10589;53.636;10.012;2022-12-04T05:13:46;0.30;99.90
20858;DHT22;10589;53.636;10.012;2022-12-04T05:16:13;0.30;99.90
20858;DHT22;10589;53.636;10.012;2022-12-04T05:18:40;0.30;99.90
20858;DHT22;10589;53.636;10.012;2022-12-04T05:21:11;0.30;99.90
20858;DHT22;10589;53.636;10.012;2022-12-04T05:23:40;0.30;99.90
20858;DHT22;10589;53.636;10.012;2022-12-04T05:26:06;0.30;99.90
20858;DHT22;10589;53.636;10.012;2022-12-04T05:28:31;0.30;99.90
20858;DHT22;10589;53.636;10.012;2022-12-04T05:31:00;0.30;99.90
20858;DHT22;10589;53.636;10.012;2022-12-04T05:33:27;0.30;99.90
20858;DHT22;10589;53.636;10.012;2022-12-04T05:36:01;0.30;99.90
20858;DHT22;10589;53.636;10.012;2022-12-04T05:38:27;0.30;99.90
20858;DHT22;10589;53.636;10.012;2022-12-04T05:40:52;0.30;99.90
20858;DHT22;10589;53.636;10.012;2022-12-04T05:43:18;0.30;99.90
20858;DHT22;10589;53.636;10.012;2022-12-04T05:45:43;0.30;99.90
20858;DHT22;10589;53.636;10.012;2022-12-04T05:48:09;0.30;99.90
20858;DHT22;10589;53.636;10.012;2022-12-04T05:50:34;0.30;99.90
20858;DHT22;10589;53.636;10.012;2022-12-04T05:53:00;0.40;99.90
20858;DHT22;10589;53.636;10.012;2022-12-04T05:55:26;0.30;99.90
20858;DHT22;10589;53.636;10.012;2022-12-04T05:57:51;0.30;99.90
20858;DHT22;10589;53.636;10.012;2022-12-04T06:00:17;0.30;99.90
20858;DHT22;10589;53.636;10.012;2022-12-04T06:02:42;0.30;99.90
20858;DHT22;10589;53.636;10.012;2022-12-04T06:05:08;0.40;99.90
20858;DHT22;10589;53.636;10.012;2022-12-04T06:07:34;0.40;99.90
20858;DHT22;10589;53.636;10.012;2022-12-04T06:10:00;0.40;99.90
20858;DHT22;10589;53.636;10.012;2022-12-04T06:12:25;0.40;99.90
20858;DHT22;10589;53.636;10.012;2022-12-04T06:14:51;0.40;99.90
20858;DHT22;10589;53.636;10.012;2022-12-04T06:17:16;0.40;99.90
20858;DHT22;10589;53.636;10.012;2022-12-04T06:19:42;0.40;99.90
20858;DHT22;10589;53.636;10.012;2022-12-04T06:22:07;0.40;99.90
20858;DHT22;10589;53.636;10.012;2022-12-04T06:24:33;0.40;99.90
20858;DHT22;10589;53.636;10.012;2022-12-04T06:26:59;0.40;99.90
20858;DHT22;10589;53.636;10.012;2022-12-04T06:29:25;0.40;99.90
20858;DHT22;10589;53.636;10.012;2022-12-04T06:31:50;0.40;99.90
20858;DHT22;10589;53.636;10.012;2022-12-04T06:34:16;0.40;99.90
20858;DHT22;10589;53.636;10.012;2022-12-04T06:36:42;0.40;99.90
20858;DHT22;10589;53.636;10.012;2022-12-04T06:39:08;0.40;99.90
20858;DHT22;10589;53.636;10.012;2022-12-04T06:41:35;0.40;99.90
20858;DHT22;10589;53.636;10.012;2022-12-04T06:44:00;0.40;99.90
20858;DHT22;10589;53.636;10.012;2022-12-04T06:46:29;0.40;99.90
20858;DHT22;10589;53.636;10.012;2022-12-04T06:48:56;0.50;99.90
20858;DHT22;10589;53.636;10.012;2022-12-04T06:51:29;0.50;99.90
20858;DHT22;10589;53.636;10.012;2022-12-04T06:53:55;0.50;99.90
20858;DHT22;10589;53.636;10.012;2022-12-04T06:56:23;0.50;99.90
20858;DHT22;10589;53.636;10.012;2022-12-04T06:58:51;0.50;99.90
20858;DHT22;10589;53.636;10.012;2022-12-04T07:01:20;0.50;99.90
20858;DHT22;10589;53.636;10.012;2022-12-04T07:03:46;0.50;99.90
20858;DHT22;10589;53.636;10.012;2022-12-04T07:06:36;0.50;99.90
20858;DHT22;10589;53.636;10.012;2022-12-04T07:09:06;0.50;99.90
20858;DHT22;10589;53.636;10.012;2022-12-04T07:11:32;0.60;99.90
20858;DHT22;10589;53.636;10.012;2022-12-04T07:13:58;0.60;99.90
20858;DHT22;10589;53.636;10.012;2022-12-04T07:16:25;0.60;99.90
20858;DHT22;10589;53.636;10.012;2022-12-04T07:18:51;0.60;99.90
20858;DHT22;10589;53.636;10.012;2022-12-04T07:21:23;0.60;99.90
20858;DHT22;10589;53.636;10.012;2022-12-04T07:23:54;0.60;99.90
20858;DHT22;10589;53.636;10.012;2022-12-04T07:26:21;0.70;99.90
20858;DHT22;10589;53.636;10.012;2022-12-04T07:28:48;0.60;99.90
20858;DHT22;10589;53.636;10.012;2022-12-04T07:31:16;0.60;99.90
20858;DHT22;10589;53.636;10.012;2022-12-04T07:33:43;0.60;99.90
20858;DHT22;10589;53.636;10.012;2022-12-04T07:36:11;0.70;99.90
20858;DHT22;10589;53.636;10.012;2022-12-04T07:38:37;0.70;99.90
20858;DHT22;10589;53.636;10.012;2022-12-04T07:41:05;0.70;99.90
20858;DHT22;10589;53.636;10.012;2022-12-04T07:43:32;0.70;99.90
20858;DHT22;10589;53.636;10.012;2022-12-04T07:46:02;0.70;99.90
20858;DHT22;10589;53.636;10.012;2022-12-04T07:48:28;0.70;99.90
20858;DHT22;10589;53.636;10.012;2022-12-04T07:51:18;0.70;99.90
20858;DHT22;10589;53.636;10.012;2022-12-04T07:53:45;0.70;99.90
20858;DHT22;10589;53.636;10.012;2022-12-04T07:56:11;0.80;99.90
20858;DHT22;10589;53.636;10.012;2022-12-04T07:58:37;0.80;99.90
20858;DHT22;10589;53.636;10.012;2022-12-04T08:01:25;0.70;99.90
20858;DHT22;10589;53.636;10.012;2022-12-04T08:03:53;0.80;99.90
20858;DHT22;10589;53.636;10.012;2022-12-04T08:06:21;0.80;99.90
20858;DHT22;10589;53.636;10.012;2022-12-04T08:08:47;0.80;99.90
20858;DHT22;10589;53.636;10.012;2022-12-04T08:11:19;0.80;99.90
20858;DHT22;10589;53.636;10.012;2022-12-04T08:13:46;0.80;99.90
20858;DHT22;10589;53.636;10.012;2022-12-04T08:16:13;0.90;99.90
20858;DHT22;10589;53.636;10.012;2022-12-04T08:18:39;0.90;99.90
20858;DHT22;10589;53.636;10.012;2022-12-04T08:21:11;0.90;99.90
20858;DHT22;10589;53.636;10.012;2022-12-04T08:23:37;0.90;99.90
20858;DHT22;10589;53.636;10.012;2022-12-04T08:26:03;0.90;99.90
20858;DHT22;10589;53.636;10.012;2022-12-04T08:28:31;1.00;99.90
20858;DHT22;10589;53.636;10.012;2022-12-04T08:33:33;1.00;99.90
20858;DHT22;10589;53.636;10.012;2022-12-04T08:35:59;1.10;99.90
20858;DHT22;10589;53.636;10.012;2022-12-04T08:38:24;1.10;99.90
20858;DHT22;10589;53.636;10.012;2022-12-04T08:40:50;1.10;99.90
20858;DHT22;10589;53.636;10.012;2022-12-04T08:43:16;1.20;99.90
20858;DHT22;10589;53.636;10.012;2022-12-04T08:45:41;1.20;99.90
20858;DHT22;10589;53.636;10.012;2022-12-04T08:48:07;1.20;99.90
20858;DHT22;10589;53.636;10.012;2022-12-04T08:50:32;1.30;99.90
20858;DHT22;10589;53.636;10.012;2022-12-04T08:52:58;1.30;99.90
20858;DHT22;10589;53.636;10.012;2022-12-04T08:55:24;1.40;99.90
20858;DHT22;10589;53.636;10.012;2022-12-04T08:57:50;1.30;99.90
20858;DHT22;10589;53.636;10.012;2022-12-04T09:00:17;1.40;99.90
20858;DHT22;10589;53.636;10.012;2022-12-04T09:02:43;1.40;99.90
20858;DHT22;10589;53.636;10.012;2022-12-04T09:05:08;1.40;99.90
20858;DHT22;10589;53.636;10.012;2022-12-04T09:07:34;1.50;99.90
20858;DHT22;10589;53.636;10.012;2022-12-04T09:10:00;1.50;99.90
20858;DHT22;10589;53.636;10.012;2022-12-04T09:12:25;1.60;99.90
20858;DHT22;10589;53.636;10.012;2022-12-04T09:14:51;1.60;99.90
20858;DHT22;10589;53.636;10.012;2022-12-04T09:17:16;1.60;99.90
20858;DHT22;10589;53.636;10.012;2022-12-04T09:19:42;1.60;99.90
20858;DHT22;10589;53.636;10.012;2022-12-04T09:22:08;1.60;99.90
20858;DHT22;10589;53.636;10.012;2022-12-04T09:24:33;1.60;99.90
20858;DHT22;10589;53.636;10.012;2022-12-04T09:26:59;1.70;99.90
20858;DHT22;10589;53.636;10.012;2022-12-04T09:29:25;1.70;99.90
20858;DHT22;10589;53.636;10.012;2022-12-04T09:31:51;1.70;99.90
20858;DHT22;10589;53.636;10.012;2022-12-04T09:34:16;1.80;99.90
20858;DHT22;10589;53.636;10.012;2022-12-04T09:36:42;1.80;99.90
20858;DHT22;10589;53.636;10.012;2022-12-04T09:39:09;1.80;99.90
20858;DHT22;10589;53.636;10.012;2022-12-04T09:44:22;1.80;99.90
20858;DHT22;10589;53.636;10.012;2022-12-04T09:49:25;1.80;99.90
20858;DHT22;10589;53.636;10.012;2022-12-04T09:51:54;1.80;99.90
20858;DHT22;10589;53.636;10.012;2022-12-04T09:54:25;1.90;99.90
20858;DHT22;10589;53.636;10.012;2022-12-04T09:57:00;1.90;99.90
20858;DHT22;10589;53.636;10.012;2022-12-04T09:59:30;1.90;99.90
20858;DHT22;10589;53.636;10.012;2022-12-04T10:02:09;1.90;99.90
20858;DHT22;10589;53.636;10.012;2022-12-04T10:04:40;2.00;99.90
20858;DHT22;10589;53.636;10.012;2022-12-04T10:07:14;2.00;99.90
20858;DHT22;10589;53.636;10.012;2022-12-04T10:10:09;2.00;99.90
20858;DHT22;10589;53.636;10.012;2022-12-04T10:12:57;2.00;99.90
20858;DHT22;10589;53.636;10.012;2022-12-04T10:18:50;2.10;99.90
20858;DHT22;10589;53.636;10.012;2022-12-04T10:26:57;2.20;99.90
20858;DHT22;10589;53.636;10.012;2022-12-04T10:29:31;2.20;99.90
20858;DHT22;10589;53.636;10.012;2022-12-04T10:32:15;2.20;99.90
20858;DHT22;10589;53.636;10.012;2022-12-04T10:34:42;2.20;99.90
20858;DHT22;10589;53.636;10.012;2022-12-04T10:37:13;2.20;99.90
20858;DHT22;10589;53.636;10.012;2022-12-04T10:39:43;2.20;99.90
20858;DHT22;10589;53.636;10.012;2022-12-04T10:42:37;2.10;99.90
20858;DHT22;10589;53.636;10.012;2022-12-04T10:45:06;2.20;99.90
20858;DHT22;10589;53.636;10.012;2022-12-04T10:47:33;2.30;99.90
20858;DHT22;10589;53.636;10.012;2022-12-04T10:50:12;2.40;99.90
20858;DHT22;10589;53.636;10.012;2022-12-04T10:52:38;2.40;99.90
20858;DHT22;10589;53.636;10.012;2022-12-04T10:55:04;2.40;99.90
20858;DHT22;10589;53.636;10.012;2022-12-04T10:57:38;2.40;99.90
20858;DHT22;10589;53.636;10.012;2022-12-04T11:02:53;2.40;99.90
20858;DHT22;10589;53.636;10.012;2022-12-04T11:05:44;2.40;99.90
20858;DHT22;10589;53.636;10.012;2022-12-04T11:08:21;2.50;99.90
20858;DHT22;10589;53.636;10.012;2022-12-04T11:13:23;2.50;99.90
20858;DHT22;10589;53.636;10.012;2022-12-04T11:15:51;2.60;99.90
20858;DHT22;10589;53.636;10.012;2022-12-04T11:18:47;2.60;99.90
20858;DHT22;10589;53.636;10.012;2022-12-04T11:21:26;2.60;99.90
20858;DHT22;10589;53.636;10.012;2022-12-04T11:23:52;2.60;99.90
20858;DHT22;10589;53.636;10.012;2022-12-04T11:26:36;2.60;99.90
20858;DHT22;10589;53.636;10.012;2022-12-04T11:29:06;2.70;99.90
20858;DHT22;10589;53.636;10.012;2022-12-04T11:31:35;2.70;99.90
20858;DHT22;10589;53.636;10.012;2022-12-04T11:34:04;2.60;99.90
20858;DHT22;10589;53.636;10.012;2022-12-04T11:36:37;2.60;99.90
20858;DHT22;10589;53.636;10.012;2022-12-04T11:39:18;2.60;99.90
20858;DHT22;10589;53.636;10.012;2022-12-04T11:41:44;2.70;99.90
20858;DHT22;10589;53.636;10.012;2022-12-04T11:44:23;2.70;99.90
20858;DHT22;10589;53.636;10.012;2022-12-04T11:46:52;2.70;99.90
20858;DHT22;10589;53.636;10.012;2022-12-04T11:49:23;2.70;99.90
20858;DHT22;10589;53.636;10.012;2022-12-04T11:54:36;2.70;99.90
20858;DHT22;10589;53.636;10.012;2022-12-04T11:57:23;2.70;99.90
20858;DHT22;10589;53.636;10.012;2022-12-04T12:03:15;2.70;99.90
20858;DHT22;10589;53.636;10.012;2022-12-04T12:06:03;2.70;99.90
20858;DHT22;10589;53.636;10.012;2022-12-04T12:11:39;2.70;99.90
20858;DHT22;10589;53.636;10.012;2022-12-04T12:17:36;2.70;99.90
20858;DHT22;10589;53.636;10.012;2022-12-04T12:20:13;2.70;99.90
20858;DHT22;10589;53.636;10.012;2022-12-04T12:33:20;2.80;99.90
20858;DHT22;10589;53.636;10.012;2022-12-04T12:38:26;2.90;99.90
20858;DHT22;10589;53.636;10.012;2022-12-04T12:41:09;2.90;99.90
20858;DHT22;10589;53.636;10.012;2022-12-04T12:43:38;2.90;99.90
20858;DHT22;10589;53.636;10.012;2022-12-04T12:46:27;2.90;99.90
20858;DHT22;10589;53.636;10.012;2022-12-04T12:49:13;2.90;99.90
20858;DHT22;10589;53.636;10.012;2022-12-04T12:51:46;2.90;99.90
20858;DHT22;10589;53.636;10.012;2022-12-04T12:54:35;3.00;99.90
20858;DHT22;10589;53.636;10.012;2022-12-04T12:59:38;2.90;99.90
20858;DHT22;10589;53.636;10.012;2022-12-04T13:02:15;2.90;99.90
20858;DHT22;10589;53.636;10.012;2022-12-04T13:04:44;2.90;99.90
20858;DHT22;10589;53.636;10.012;2022-12-04T13:12:48;3.20;99.90
20858;DHT22;10589;53.636;10.012;2022-12-04T13:15:19;3.20;99.90
20858;DHT22;10589;53.636;10.012;2022-12-04T13:17:47;3.30;99.90
20858;DHT22;10589;53.636;10.012;2022-12-04T13:20:24;3.30;99.90
20858;DHT22;10589;53.636;10.012;2022-12-04T13:28:51;3.40;99.90
20858;DHT22;10589;53.636;10.012;2022-12-04T13:31:40;3.40;99.90
20858;DHT22;10589;53.636;10.012;2022-12-04T13:42:39;3.40;99.90
20858;DHT22;10589;53.636;10.012;2022-12-04T13:45:19;3.40;99.90
20858;DHT22;10589;53.636;10.012;2022-12-04T13:47:59;3.40;99.90
20858;DHT22;10589;53.636;10.012;2022-12-04T13:50:31;3.40;99.90
20858;DHT22;10589;53.636;10.012;2022-12-04T13:52:57;3.50;99.90
20858;DHT22;10589;53.636;10.012;2022-12-04T13:57:56;3.40;99.90
20858;DHT22;10589;53.636;10.012;2022-12-04T14:02:52;3.40;99.90
20858;DHT22;10589;53.636;10.012;2022-12-04T14:05:30;3.40;99.90
20858;DHT22;10589;53.636;10.012;2022-12-04T14:13:23;3.40;99.90
20858;DHT22;10589;53.636;10.012;2022-12-04T14:16:08;3.40;99.90
20858;DHT22;10589;53.636;10.012;2022-12-04T14:18:46;3.30;99.90
20858;DHT22;10589;53.636;10.012;2022-12-04T14:21:12;3.30;99.90
20858;DHT22;10589;53.636;10.012;2022-12-04T14:23:40;3.40;99.90
20858;DHT22;10589;53.636;10.012;2022-12-04T14:26:27;3.40;99.90
20858;DHT22;10589;53.636;10.012;2022-12-04T14:29:16;3.40;99.90
20858;DHT22;10589;53.636;10.012;2022-12-04T14:31:46;3.50;99.90
20858;DHT22;10589;53.636;10.012;2022-12-04T14:34:22;3.50;99.90
20858;DHT22;10589;53.636;10.012;2022-12-04T14:36:50;3.50;99.90
20858;DHT22;10589;53.636;10.012;2022-12-04T14:39:26;3.50;99.90
20858;DHT22;10589;53.636;10.012;2022-12-04T14:42:48;3.50;99.90
20858;DHT22;10589;53.636;10.012;2022-12-04T14:44:59;3.50;99.90
20858;DHT22;10589;53.636;10.012;2022-12-04T14:53:36;3.50;99.90
20858;DHT22;10589;53.636;10.012;2022-12-04T14:56:23;3.60;99.90
20858;DHT22;10589;53.636;10.012;2022-12-04T14:58:50;3.60;99.90
20858;DHT22;10589;53.636;10.012;2022-12-04T15:01:24;3.50;99.90
20858;DHT22;10589;53.636;10.012;2022-12-04T15:03:54;3.60;99.90
20858;DHT22;10589;53.636;10.012;2022-12-04T15:06:29;3.60;99.90
20858;DHT22;10589;53.636;10.012;2022-12-04T15:09:01;3.80;99.90
20858;DHT22;10589;53.636;10.012;2022-12-04T15:11:49;3.90;99.90
20858;DHT22;10589;53.636;10.012;2022-12-04T15:14:48;3.90;99.90
20858;DHT22;10589;53.636;10.012;2022-12-04T15:17:16;3.80;99.90
20858;DHT22;10589;53.636;10.012;2022-12-04T15:19:42;3.80;99.90
20858;DHT22;10589;53.636;10.012;2022-12-04T15:22:22;3.80;99.90
20858;DHT22;10589;53.636;10.012;2022-12-04T15:24:49;3.80;99.90
20858;DHT22;10589;53.636;10.012;2022-12-04T15:27:16;3.80;99.90
20858;DHT22;10589;53.636;10.012;2022-12-04T15:29:43;3.70;99.90
20858;DHT22;10589;53.636;10.012;2022-12-04T15:32:14;3.70;99.90
20858;DHT22;10589;53.636;10.012;2022-12-04T15:34:47;3.70;99.90
20858;DHT22;10589;53.636;10.012;2022-12-04T15:37:22;3.80;99.90
20858;DHT22;10589;53.636;10.012;2022-12-04T15:39:49;3.80;99.90
20858;DHT22;10589;53.636;10.012;2022-12-04T15:47:37;3.80;99.90
20858;DHT22;10589;53.636;10.012;2022-12-04T15:55:28;3.80;99.90
20858;DHT22;10589;53.636;10.012;2022-12-04T15:57:58;3.80;99.90
20858;DHT22;10589;53.636;10.012;2022-12-04T16:00:30;3.80;99.90
20858;DHT22;10589;53.636;10.012;2022-12-04T16:02:57;3.80;99.90
20858;DHT22;10589;53.636;10.012;2022-12-04T16:05:32;3.80;99.90
20858;DHT22;10589;53.636;10.012;2022-12-04T16:08:21;3.80;99.90
20858;DHT22;10589;53.636;10.012;2022-12-04T16:11:05;3.80;99.90
20858;DHT22;10589;53.636;10.012;2022-12-04T16:13:36;3.80;99.90
20858;DHT22;10589;53.636;10.012;2022-12-04T16:16:07;3.80;99.90
20858;DHT22;10589;53.636;10.012;2022-12-04T16:18:37;3.90;99.90
20858;DHT22;10589;53.636;10.012;2022-12-04T16:21:02;4.00;99.90
20858;DHT22;10589;53.636;10.012;2022-12-04T16:23:28;4.00;99.90
20858;DHT22;10589;53.636;10.012;2022-12-04T16:25:55;4.00;99.90
20858;DHT22;10589;53.636;10.012;2022-12-04T16:28:21;4.00;99.90
20858;DHT22;10589;53.636;10.012;2022-12-04T16:30:49;4.00;99.90
20858;DHT22;10589;53.636;10.012;2022-12-04T16:33:15;4.10;99.90
20858;DHT22;10589;53.636;10.012;2022-12-04T16:35:41;4.10;99.90
20858;DHT22;10589;53.636;10.012;2022-12-04T16:38:15;4.10;99.90
20858;DHT22;10589;53.636;10.012;2022-12-04T16:40:42;4.10;99.90
20858;DHT22;10589;53.636;10.012;2022-12-04T16:43:11;4.10;99.90
20858;DHT22;10589;53.636;10.012;2022-12-04T16:45:37;4.10;99.90
20858;DHT22;10589;53.636;10.012;2022-12-04T16:48:03;4.10;99.90
20858;DHT22;10589;53.636;10.012;2022-12-04T16:50:28;4.10;99.90
20858;DHT22;10589;53.636;10.012;2022-12-04T16:52:54;4.20;99.90
20858;DHT22;10589;53.636;10.012;2022-12-04T16:55:25;4.10;99.90
20858;DHT22;10589;53.636;10.012;2022-12-04T16:57:52;4.20;99.90
20858;DHT22;10589;53.636;10.012;2022-12-04T17:00:18;4.20;99.90
20858;DHT22;10589;53.636;10.012;2022-12-04T17:02:44;4.20;99.90
20858;DHT22;10589;53.636;10.012;2022-12-04T17:05:29;4.20;99.90
20858;DHT22;10589;53.636;10.012;2022-12-04T17:07:56;4.30;99.90
20858;DHT22;10589;53.636;10.012;2022-12-04T17:10:22;4.30;99.90
20858;DHT22;10589;53.636;10.012;2022-12-04T17:12:48;4.30;99.90
20858;DHT22;10589;53.636;10.012;2022-12-04T17:15:15;4.30;99.90
20858;DHT22;10589;53.636;10.012;2022-12-04T17:17:41;4.30;99.90
20858;DHT22;10589;53.636;10.012;2022-12-04T17:20:11;4.30;99.90
20858;DHT22;10589;53.636;10.012;2022-12-04T17:22:37;4.30;99.90
20858;DHT22;10589;53.636;10.012;2022-12-04T17:25:03;4.30;99.90
20858;DHT22;10589;53.636;10.012;2022-12-04T17:27:29;4.30;99.90
20858;DHT22;10589;53.636;10.012;2022-12-04T17:29:55;4.30;99.90
20858;DHT22;10589;53.636;10.012;2022-12-04T17:32:21;4.30;99.90
20858;DHT22;10589;53.636;10.012;2022-12-04T17:34:47;4.30;99.90
20858;DHT22;10589;53.636;10.012;2022-12-04T17:37:13;4.40;99.90
20858;DHT22;10589;53.636;10.012;2022-12-04T17:39:39;4.40;99.90
20858;DHT22;10589;53.636;10.012;2022-12-04T17:42:04;4.40;99.90
20858;DHT22;10589;53.636;10.012;2022-12-04T17:44:30;4.30;99.90
20858;DHT22;10589;53.636;10.012;2022-12-04T17:46:56;4.40;99.90
20858;DHT22;10589;53.636;10.012;2022-12-04T17:49:24;4.40;99.90
20858;DHT22;10589;53.636;10.012;2022-12-04T17:51:50;4.40;99.90
20858;DHT22;10589;53.636;10.012;2022-12-04T17:54:15;4.40;99.90
20858;DHT22;10589;53.636;10.012;2022-12-04T17:56:41;4.40;99.90
20858;DHT22;10589;53.636;10.012;2022-12-04T17:59:06;4.40;99.90
20858;DHT22;10589;53.636;10.012;2022-12-04T18:01:33;4.40;99.90
20858;DHT22;10589;53.636;10.012;2022-12-04T18:04:01;4.40;99.90
20858;DHT22;10589;53.636;10.012;2022-12-04T18:06:39;4.40;99.90
20858;DHT22;10589;53.636;10.012;2022-12-04T18:09:06;4.40;99.90
20858;DHT22;10589;53.636;10.012;2022-12-04T18:11:34;4.40;99.90
20858;DHT22;10589;53.636;10.012;2022-12-04T18:14:04;4.40;99.90
20858;DHT22;10589;53.636;10.012;2022-12-04T18:16:32;4.40;99.90
20858;DHT22;10589;53.636;10.012;2022-12-04T18:18:59;4.40;99.90
20858;DHT22;10589;53.636;10.012;2022-12-04T18:21:26;4.40;99.90
20858;DHT22;10589;53.636;10.012;2022-12-04T18:23:55;4.40;99.90
20858;DHT22;10589;53.636;10.012;2022-12-04T18:26:23;4.40;99.90
20858;DHT22;10589;53.636;10.012;2022-12-04T18:28:49;4.40;99.90
20858;DHT22;10589;53.636;10.012;2022-12-04T18:31:16;4.40;99.90
20858;DHT22;10589;53.636;10.012;2022-12-04T18:33:43;4.40;99.90
20858;DHT22;10589;53.636;10.012;2022-12-04T18:36:14;4.40;99.90
20858;DHT22;10589;53.636;10.012;2022-12-04T18:38:40;4.40;99.90
20858;DHT22;10589;53.636;10.012;2022-12-04T18:41:07;4.40;99.90
20858;DHT22;10589;53.636;10.012;2022-12-04T18:43:40;4.40;99.90
20858;DHT22;10589;53.636;10.012;2022-12-04T18:46:08;4.50;99.90
20858;DHT22;10589;53.636;10.012;2022-12-04T18:48:35;4.50;99.90
20858;DHT22;10589;53.636;10.012;2022-12-04T18:51:13;4.50;99.90
20858;DHT22;10589;53.636;10.012;2022-12-04T18:53:39;4.50;99.90
20858;DHT22;10589;53.636;10.012;2022-12-04T18:56:05;4.50;99.90
20858;DHT22;10589;53.636;10.012;2022-12-04T18:58:32;4.50;99.90
20858;DHT22;10589;53.636;10.012;2022-12-04T19:01:12;4.50;99.90
20858;DHT22;10589;53.636;10.012;2022-12-04T19:03:38;4.50;99.90
20858;DHT22;10589;53.636;10.012;2022-12-04T19:06:04;4.50;99.90
20858;DHT22;10589;53.636;10.012;2022-12-04T19:08:30;4.50;99.90
20858;DHT22;10589;53.636;10.012;2022-12-04T19:11:03;4.50;99.90
20858;DHT22;10589;53.636;10.012;2022-12-04T19:13:28;4.40;99.90
20858;DHT22;10589;53.636;10.012;2022-12-04T19:15:54;4.40;99.90
20858;DHT22;10589;53.636;10.012;2022-12-04T19:18:19;4.40;99.90
20858;DHT22;10589;53.636;10.012;2022-12-04T19:20:45;4.40;99.90
20858;DHT22;10589;53.636;10.012;2022-12-04T19:23:10;4.40;99.90
20858;DHT22;10589;53.636;10.012;2022-12-04T19:25:36;4.40;99.90
20858;DHT22;10589;53.636;10.012;2022-12-04T19:28:03;4.40;99.90
20858;DHT22;10589;53.636;10.012;2022-12-04T19:30:29;4.40;99.90
20858;DHT22;10589;53.636;10.012;2022-12-04T19:32:54;4.40;99.90
20858;DHT22;10589;53.636;10.012;2022-12-04T19:35:20;4.40;99.90
20858;DHT22;10589;53.636;10.012;2022-12-04T19:37:46;4.40;99.90
20858;DHT22;10589;53.636;10.012;2022-12-04T19:40:12;4.40;99.90
20858;DHT22;10589;53.636;10.012;2022-12-04T19:42:38;4.40;99.90
20858;DHT22;10589;53.636;10.012;2022-12-04T19:45:04;4.40;99.90
20858;DHT22;10589;53.636;10.012;2022-12-04T19:47:31;4.40;99.90
20858;DHT22;10589;53.636;10.012;2022-12-04T19:49:57;4.40;99.90
20858;DHT22;10589;53.636;10.012;2022-12-04T19:52:22;4.40;99.90
20858;DHT22;10589;53.636;10.012;2022-12-04T19:54:48;4.40;99.90
20858;DHT22;10589;53.636;10.012;2022-12-04T19:57:17;4.40;99.90
20858;DHT22;10589;53.636;10.012;2022-12-04T19:59:42;4.40;99.90
20858;DHT22;10589;53.636;10.012;2022-12-04T20:02:09;4.40;99.90
20858;DHT22;10589;53.636;10.012;2022-12-04T20:04:37;4.40;99.90
20858;DHT22;10589;53.636;10.012;2022-12-04T20:07:03;4.40;99.90
20858;DHT22;10589;53.636;10.012;2022-12-04T20:09:29;4.40;99.90
20858;DHT22;10589;53.636;10.012;2022-12-04T20:11:55;4.40;99.90
20858;DHT22;10589;53.636;10.012;2022-12-04T20:14:20;4.40;99.90
20858;DHT22;10589;53.636;10.012;2022-12-04T20:16:46;4.40;99.90
20858;DHT22;10589;53.636;10.012;2022-12-04T20:19:14;4.40;99.90
20858;DHT22;10589;53.636;10.012;2022-12-04T20:21:40;4.40;99.90
20858;DHT22;10589;53.636;10.012;2022-12-04T20:24:06;4.40;99.90
20858;DHT22;10589;53.636;10.012;2022-12-04T20:26:35;4.40;99.90
20858;DHT22;10589;53.636;10.012;2022-12-04T20:29:02;4.40;99.90
20858;DHT22;10589;53.636;10.012;2022-12-04T20:31:30;4.40;99.90
20858;DHT22;10589;53.636;10.012;2022-12-04T20:33:58;4.40;99.90
20858;DHT22;10589;53.636;10.012;2022-12-04T20:36:25;4.40;99.90
20858;DHT22;10589;53.636;10.012;2022-12-04T20:38:52;4.40;99.90
20858;DHT22;10589;53.636;10.012;2022-12-04T20:41:20;4.40;99.90
20858;DHT22;10589;53.636;10.012;2022-12-04T20:43:47;4.40;99.90
20858;DHT22;10589;53.636;10.012;2022-12-04T20:46:20;4.40;99.90
20858;DHT22;10589;53.636;10.012;2022-12-04T20:48:46;4.40;99.90
20858;DHT22;10589;53.636;10.012;2022-12-04T20:51:24;4.40;99.90
20858;DHT22;10589;53.636;10.012;2022-12-04T20:53:51;4.40;99.90
20858;DHT22;10589;53.636;10.012;2022-12-04T20:56:18;4.40;99.90
20858;DHT22;10589;53.636;10.012;2022-12-04T20:58:46;4.40;99.90
20858;DHT22;10589;53.636;10.012;2022-12-04T21:01:17;4.40;99.90
20858;DHT22;10589;53.636;10.012;2022-12-04T21:03:43;4.40;99.90
20858;DHT22;10589;53.636;10.012;2022-12-04T21:06:15;4.40;99.90
20858;DHT22;10589;53.636;10.012;2022-12-04T21:08:42;4.40;99.90
20858;DHT22;10589;53.636;10.012;2022-12-04T21:11:32;4.40;99.90
20858;DHT22;10589;53.636;10.012;2022-12-04T21:13:59;4.40;99.90
20858;DHT22;10589;53.636;10.012;2022-12-04T21:16:44;4.40;99.90
20858;DHT22;10589;53.636;10.012;2022-12-04T21:19:12;4.40;99.90
20858;DHT22;10589;53.636;10.012;2022-12-04T21:21:38;4.40;99.90
20858;DHT22;10589;53.636;10.012;2022-12-04T21:24:05;4.40;99.90
20858;DHT22;10589;53.636;10.012;2022-12-04T21:26:32;4.40;99.90
20858;DHT22;10589;53.636;10.012;2022-12-04T21:28:58;4.40;99.90
20858;DHT22;10589;53.636;10.012;2022-12-04T21:31:26;4.40;99.90
20858;DHT22;10589;53.636;10.012;2022-12-04T21:33:53;4.40;99.90
20858;DHT22;10589;53.636;10.012;2022-12-04T21:36:19;4.40;99.90
20858;DHT22;10589;53.636;10.012;2022-12-04T21:38:45;4.40;99.90
20858;DHT22;10589;53.636;10.012;2022-12-04T21:41:10;4.40;99.90
20858;DHT22;10589;53.636;10.012;2022-12-04T21:43:56;4.40;99.90
20858;DHT22;10589;53.636;10.012;2022-12-04T21:46:22;4.40;99.90
20858;DHT22;10589;53.636;10.012;2022-12-04T21:48:47;4.40;99.90
20858;DHT22;10589;53.636;10.012;2022-12-04T21:51:13;4.40;99.90
20858;DHT22;10589;53.636;10.012;2022-12-04T21:53:38;4.40;99.90
20858;DHT22;10589;53.636;10.012;2022-12-04T21:56:04;4.40;99.90
20858;DHT22;10589;53.636;10.012;2022-12-04T21:58:30;4.40;99.90
20858;DHT22;10589;53.636;10.012;2022-12-04T22:00:56;4.40;99.90
20858;DHT22;10589;53.636;10.012;2022-12-04T22:03:21;4.40;99.90
20858;DHT22;10589;53.636;10.012;2022-12-04T22:05:47;4.40;99.90
20858;DHT22;10589;53.636;10.012;2022-12-04T22:08:13;4.40;99.90